createdAt,value
2018-03-11T00:02:27.389Z,88.54
2018-03-11T00:04:55.496Z,88.68
2018-03-11T00:07:23.608Z,88.82
2018-03-11T00:09:51.716Z,88.89
2018-03-11T00:12:19.835Z,88.96
2018-03-11T00:14:47.943Z,89.09
2018-03-11T00:17:16.117Z,89.20
2018-03-11T00:19:44.211Z,89.36
2018-03-11T00:22:12.334Z,89.24
2018-03-11T00:24:40.459Z,89.47
2018-03-11T00:27:08.559Z,89.58
2018-03-11T00:29:36.668Z,89.55
2018-03-11T00:32:04.773Z,89.59
2018-03-11T00:34:32.941Z,89.78
2018-03-11T00:37:01.052Z,89.89
2018-03-11T00:39:29.170Z,90.18
2018-03-11T00:41:57.330Z,90.53
2018-03-11T00:44:25.462Z,90.55
2018-03-11T00:46:53.564Z,90.66
2018-03-11T00:49:21.678Z,90.70
2018-03-11T00:51:49.811Z,90.85
2018-03-11T00:54:18.109Z,90.70
2018-03-11T00:56:46.204Z,90.64
2018-03-11T00:59:14.332Z,90.86
2018-03-11T01:01:42.445Z,90.89
2018-03-11T01:04:10.697Z,91.01
2018-03-11T01:06:38.811Z,91.15
2018-03-11T01:09:06.944Z,91.22
2018-03-11T01:11:35.112Z,91.39
2018-03-11T01:14:03.225Z,91.66
2018-03-11T01:16:31.349Z,91.80
2018-03-11T01:18:59.464Z,91.95
2018-03-11T01:21:27.578Z,91.72
2018-03-11T01:23:55.687Z,91.52
2018-03-11T01:26:23.808Z,91.60
2018-03-11T01:28:51.927Z,91.35
2018-03-11T01:31:20.053Z,91.83
2018-03-11T01:33:48.176Z,91.55
2018-03-11T01:36:16.294Z,91.67
2018-03-11T01:38:44.443Z,91.73
2018-03-11T01:41:12.617Z,92.00
2018-03-11T01:43:40.715Z,92.30
2018-03-11T01:46:08.849Z,92.37
2018-03-11T01:48:36.980Z,92.42
2018-03-11T01:51:05.079Z,92.69
2018-03-11T01:53:33.192Z,92.60
2018-03-11T01:56:01.304Z,92.88
2018-03-11T01:58:29.473Z,92.68
2018-03-11T02:00:57.532Z,92.82
2018-03-11T02:03:25.648Z,93.13
2018-03-11T02:05:53.770Z,92.48
2018-03-11T02:08:21.889Z,92.64
2018-03-11T02:10:49.990Z,92.79
2018-03-11T02:13:18.096Z,92.77
2018-03-11T02:15:46.225Z,92.76
2018-03-11T02:18:14.338Z,92.65
2018-03-11T02:20:42.455Z,92.94
2018-03-11T02:23:10.579Z,93.07
2018-03-11T02:25:38.716Z,92.91
2018-03-11T02:28:06.830Z,93.29
2018-03-11T02:30:34.974Z,92.86
2018-03-11T02:33:03.146Z,93.01
2018-03-11T02:35:31.267Z,92.93
2018-03-11T02:37:59.389Z,92.82
2018-03-11T02:40:27.511Z,93.07
2018-03-11T02:42:55.631Z,92.58
2018-03-11T02:45:23.735Z,92.83
2018-03-11T02:47:51.858Z,92.89
2018-03-11T02:50:19.965Z,93.16
2018-03-11T02:52:48.087Z,93.20
2018-03-11T02:55:16.191Z,93.16
2018-03-11T02:57:44.370Z,93.16
2018-03-11T03:00:12.480Z,93.24
2018-03-11T03:02:40.608Z,93.27
2018-03-11T03:05:08.731Z,93.50
2018-03-11T03:07:36.854Z,93.43
2018-03-11T03:10:04.975Z,93.58
2018-03-11T03:12:33.083Z,93.52
2018-03-11T03:15:01.214Z,93.58
2018-03-11T03:17:29.338Z,93.28
2018-03-11T03:19:57.450Z,93.56
2018-03-11T03:22:25.876Z,93.38
2018-03-11T03:24:53.985Z,93.81
2018-03-11T03:27:22.113Z,93.70
2018-03-11T03:29:50.219Z,93.52
2018-03-11T03:32:18.353Z,93.82
2018-03-11T03:34:46.477Z,93.70
2018-03-11T03:37:14.600Z,93.53
2018-03-11T03:39:42.719Z,93.60
2018-03-11T03:42:10.826Z,93.64
2018-03-11T03:44:38.934Z,93.62
2018-03-11T03:47:07.065Z,93.96
2018-03-11T03:49:35.173Z,93.57
2018-03-11T03:52:03.312Z,93.60
2018-03-11T03:54:31.421Z,93.36
2018-03-11T03:56:59.521Z,93.65
2018-03-11T03:59:27.644Z,93.46
2018-03-11T04:01:55.748Z,93.51
2018-03-11T04:04:23.856Z,93.70
2018-03-11T04:06:52.017Z,93.83
2018-03-11T04:09:20.137Z,93.57
2018-03-11T04:11:48.253Z,93.56
2018-03-11T04:14:16.376Z,93.24
2018-03-11T04:16:44.643Z,93.06
2018-03-11T04:19:12.743Z,92.99
2018-03-11T04:21:40.870Z,92.83
2018-03-11T04:24:08.989Z,92.66
2018-03-11T04:26:37.101Z,93.22
2018-03-11T04:29:05.683Z,93.17
2018-03-11T04:31:33.788Z,93.54
2018-03-11T04:34:02.302Z,93.72
2018-03-11T04:36:30.434Z,93.99
2018-03-11T04:38:58.546Z,93.49
2018-03-11T04:41:26.677Z,93.12
2018-03-11T04:43:54.794Z,92.86
2018-03-11T04:46:22.900Z,93.12
2018-03-11T04:48:51.034Z,93.21
2018-03-11T04:51:19.142Z,93.74
2018-03-11T04:53:47.247Z,93.45
2018-03-11T04:56:15.382Z,93.93
2018-03-11T04:58:43.475Z,93.82
2018-03-11T05:01:11.592Z,93.97
2018-03-11T05:03:39.730Z,93.68
2018-03-11T05:06:07.831Z,93.96
2018-03-11T05:08:35.933Z,94.12
2018-03-11T05:11:04.051Z,94.75
2018-03-11T05:13:32.160Z,94.21
2018-03-11T05:16:00.288Z,94.38
2018-03-11T05:18:28.395Z,95.53
2018-03-11T05:20:56.507Z,94.10
2018-03-11T05:23:24.639Z,93.86
2018-03-11T05:25:52.739Z,95.32
2018-03-11T05:28:20.847Z,94.52
2018-03-11T05:30:48.980Z,94.08
2018-03-11T05:33:17.095Z,94.22
2018-03-11T05:35:45.213Z,93.80
2018-03-11T05:38:13.349Z,93.66
2018-03-11T05:40:41.450Z,93.76
2018-03-11T05:43:09.567Z,93.91
2018-03-11T05:45:37.675Z,93.79
2018-03-11T05:48:05.795Z,93.72
2018-03-11T05:50:33.923Z,93.96
2018-03-11T05:53:02.038Z,93.29
2018-03-11T05:55:30.173Z,93.17
2018-03-11T05:57:58.325Z,92.93
2018-03-11T06:00:26.441Z,93.02
2018-03-11T06:02:54.557Z,93.02
2018-03-11T06:05:22.668Z,93.13
2018-03-11T06:07:50.798Z,93.41
2018-03-11T06:10:18.897Z,93.18
2018-03-11T06:12:47.042Z,93.16
2018-03-11T06:15:15.155Z,93.38
2018-03-11T06:17:43.266Z,92.88
2018-03-11T06:20:11.374Z,93.27
2018-03-11T06:22:39.501Z,93.47
2018-03-11T06:25:07.629Z,93.39
2018-03-11T06:27:35.747Z,93.37
2018-03-11T06:30:03.865Z,93.51
2018-03-11T06:32:32.041Z,93.27
2018-03-11T06:35:00.091Z,92.85
2018-03-11T06:37:28.191Z,92.37
2018-03-11T06:39:56.377Z,91.99
2018-03-11T06:42:24.497Z,91.65
2018-03-11T06:44:52.638Z,91.66
2018-03-11T06:47:20.743Z,91.10
2018-03-11T06:49:48.869Z,91.34
2018-03-11T06:52:17.044Z,90.93
2018-03-11T06:54:45.146Z,90.58
2018-03-11T06:57:13.274Z,90.27
2018-03-11T06:59:41.396Z,90.27
2018-03-11T07:02:09.550Z,90.45
2018-03-11T07:04:37.647Z,89.41
2018-03-11T07:07:05.760Z,88.47
2018-03-11T07:09:33.874Z,87.32
2018-03-11T07:12:02.068Z,87.47
2018-03-11T07:14:30.177Z,85.73
2018-03-11T07:16:58.298Z,84.72
2018-03-11T07:19:26.420Z,84.29
2018-03-11T07:21:54.512Z,84.04
2018-03-11T07:24:22.628Z,84.12
2018-03-11T07:26:50.741Z,83.80
2018-03-11T07:29:18.864Z,82.97
2018-03-11T07:31:46.973Z,83.08
2018-03-11T07:34:15.146Z,82.86
2018-03-11T07:36:43.267Z,82.97
2018-03-11T07:39:11.381Z,82.58
2018-03-11T07:41:39.493Z,81.98
2018-03-11T07:44:07.613Z,81.95
2018-03-11T07:46:35.753Z,81.66
2018-03-11T07:49:03.879Z,81.68
2018-03-11T07:51:31.976Z,82.11
2018-03-11T07:54:00.094Z,82.41
2018-03-11T07:56:28.187Z,82.11
2018-03-11T07:58:56.328Z,82.18
2018-03-11T08:01:24.437Z,82.34
2018-03-11T08:03:52.648Z,82.01
2018-03-11T08:06:20.779Z,82.21
2018-03-11T08:08:48.877Z,82.21
2018-03-11T08:11:17.901Z,82.37
2018-03-11T08:13:46.051Z,82.10
2018-03-11T08:16:14.163Z,82.25
2018-03-11T08:18:42.264Z,81.69
2018-03-11T08:21:10.381Z,81.55
2018-03-11T08:23:38.484Z,81.51
2018-03-11T08:26:06.580Z,81.89
2018-03-11T08:28:34.705Z,81.08
2018-03-11T08:31:02.818Z,81.58
2018-03-11T08:33:30.926Z,81.81
2018-03-11T08:35:59.046Z,81.20
2018-03-11T08:38:27.148Z,81.84
2018-03-11T08:40:55.253Z,81.33
2018-03-11T08:43:23.351Z,81.61
2018-03-11T08:45:51.473Z,82.09
2018-03-11T08:48:19.644Z,82.68
2018-03-11T08:50:47.694Z,82.93
2018-03-11T08:53:15.824Z,82.57
2018-03-11T08:55:43.916Z,82.54
2018-03-11T08:58:12.043Z,83.00
2018-03-11T09:00:40.149Z,83.23
2018-03-11T09:03:08.247Z,84.00
2018-03-11T09:05:36.386Z,84.30
2018-03-11T09:08:04.489Z,84.64
2018-03-11T09:10:32.644Z,84.68
2018-03-11T09:13:00.690Z,84.58
2018-03-11T09:15:28.838Z,83.91
2018-03-11T09:17:56.925Z,84.01
2018-03-11T09:20:25.054Z,83.73
2018-03-11T09:22:53.161Z,83.31
2018-03-11T09:25:21.259Z,83.19
2018-03-11T09:27:49.377Z,82.33
2018-03-11T09:30:17.554Z,81.98
2018-03-11T09:32:45.718Z,81.88
2018-03-11T09:35:13.828Z,82.37
2018-03-11T09:37:41.929Z,81.58
2018-03-11T09:40:10.041Z,81.26
2018-03-11T09:42:38.148Z,80.49
2018-03-11T09:45:06.269Z,80.60
2018-03-11T09:47:34.386Z,80.30
2018-03-11T09:50:02.489Z,80.04
2018-03-11T09:52:30.645Z,80.25
2018-03-11T09:54:58.745Z,78.34
2018-03-11T09:57:26.877Z,78.46
2018-03-11T09:59:54.975Z,78.68
2018-03-11T10:02:23.090Z,78.37
2018-03-11T10:04:51.197Z,78.25
2018-03-11T10:07:19.311Z,77.68
2018-03-11T10:09:47.400Z,77.93
2018-03-11T10:12:15.516Z,77.55
2018-03-11T10:14:43.636Z,77.42
2018-03-11T10:17:11.756Z,76.95
2018-03-11T10:19:39.856Z,77.04
2018-03-11T10:22:07.979Z,77.61
2018-03-11T10:24:36.078Z,77.76
2018-03-11T10:27:04.181Z,77.58
2018-03-11T10:29:32.294Z,77.70
2018-03-11T10:32:00.402Z,76.95
2018-03-11T10:34:28.590Z,77.52
2018-03-11T10:36:57.621Z,77.58
2018-03-11T10:39:25.761Z,76.96
2018-03-11T10:41:53.870Z,76.62
2018-03-11T10:44:21.981Z,76.44
2018-03-11T10:46:50.103Z,76.26
2018-03-11T10:49:21.507Z,76.73
2018-03-11T10:51:49.614Z,75.95
2018-03-11T10:54:17.761Z,76.40
2018-03-11T10:56:45.850Z,76.25
2018-03-11T10:59:13.983Z,75.62
2018-03-11T11:01:46.074Z,74.63
2018-03-11T11:04:14.979Z,74.72
2018-03-11T11:06:43.100Z,74.71
2018-03-11T11:09:11.213Z,73.69
2018-03-11T11:11:39.345Z,74.00
2018-03-11T11:14:07.441Z,73.63
2018-03-11T11:16:35.572Z,73.27
2018-03-11T11:19:03.766Z,73.83
2018-03-11T11:21:31.865Z,73.82
2018-03-11T11:23:59.986Z,73.61
2018-03-11T11:26:28.081Z,73.09
2018-03-11T11:28:56.197Z,72.93
2018-03-11T11:31:24.313Z,73.04
2018-03-11T11:33:52.421Z,73.02
2018-03-11T11:36:20.691Z,73.03
2018-03-11T11:38:48.792Z,72.92
2018-03-11T11:41:16.887Z,72.94
2018-03-11T11:43:47.966Z,73.11
2018-03-11T11:46:16.058Z,73.09
2018-03-11T11:48:44.186Z,73.37
2018-03-11T11:51:12.301Z,73.46
2018-03-11T11:53:40.397Z,72.86
2018-03-11T11:56:10.496Z,73.01
2018-03-11T11:58:38.568Z,73.20
2018-03-11T12:01:06.668Z,73.07
2018-03-11T12:03:34.793Z,72.60
2018-03-11T12:06:02.883Z,72.90
2018-03-11T12:08:30.988Z,72.97
2018-03-11T12:10:59.160Z,72.66
2018-03-11T12:13:27.276Z,72.88
2018-03-11T12:15:55.380Z,72.62
2018-03-11T12:18:23.499Z,72.61
2018-03-11T12:20:51.619Z,72.96
2018-03-11T12:23:19.716Z,72.51
2018-03-11T12:25:47.867Z,72.27
2018-03-11T12:28:16.036Z,71.99
2018-03-11T12:30:44.130Z,71.94
2018-03-11T12:33:12.244Z,71.98
2018-03-11T12:35:40.357Z,71.27
2018-03-11T12:38:08.457Z,71.31
2018-03-11T12:40:36.577Z,71.57
2018-03-11T12:43:04.706Z,71.50
2018-03-11T12:45:32.806Z,71.47
2018-03-11T12:48:00.936Z,71.21
2018-03-11T12:50:29.037Z,70.96
2018-03-11T12:52:57.123Z,70.65
2018-03-11T12:55:25.235Z,70.93
2018-03-11T12:57:53.322Z,71.02
2018-03-11T13:00:21.442Z,71.18
2018-03-11T13:02:49.536Z,70.37
2018-03-11T13:05:17.624Z,70.70
2018-03-11T13:07:45.732Z,70.86
2018-03-11T13:10:13.857Z,70.39
2018-03-11T13:12:41.952Z,70.34
2018-03-11T13:15:10.064Z,69.99
2018-03-11T13:17:38.146Z,69.71
2018-03-11T13:20:21.327Z,70.26
2018-03-11T13:22:49.431Z,69.66
2018-03-11T13:25:17.498Z,69.62
2018-03-11T13:30:50.682Z,69.69
2018-03-11T13:33:30.752Z,69.33
2018-03-11T13:35:58.838Z,69.73
2018-03-11T13:38:38.714Z,69.45
2018-03-11T13:41:06.776Z,69.05
2018-03-11T13:43:34.869Z,69.01
2018-03-11T13:46:14.713Z,69.13
2018-03-11T13:48:42.814Z,68.49
2018-03-11T13:51:10.900Z,68.77
2018-03-11T13:53:48.881Z,68.74
2018-03-11T13:56:16.984Z,68.83
2018-03-11T13:58:45.242Z,69.00
2018-03-11T14:01:13.339Z,68.53
2018-03-11T14:03:41.457Z,68.21
2018-03-11T14:06:09.608Z,68.52
2018-03-11T14:08:37.687Z,68.05
2018-03-11T14:11:05.813Z,68.45
2018-03-11T14:13:33.943Z,68.41
2018-03-11T14:16:02.054Z,68.46
2018-03-11T14:18:30.156Z,68.22
2018-03-11T14:20:58.398Z,68.04
2018-03-11T14:23:26.488Z,67.34
2018-03-11T14:25:54.635Z,67.12
2018-03-11T14:28:22.759Z,67.64
2018-03-11T14:30:50.911Z,67.19
2018-03-11T14:33:19.018Z,67.32
2018-03-11T14:35:47.123Z,67.11
2018-03-11T14:38:15.227Z,66.77
2018-03-11T14:40:43.333Z,67.11
2018-03-11T14:43:11.439Z,66.67
2018-03-11T14:45:39.539Z,66.76
2018-03-11T14:48:07.652Z,66.68
2018-03-11T14:50:35.809Z,66.03
2018-03-11T14:53:07.673Z,65.38
2018-03-11T14:55:36.375Z,65.11
2018-03-11T14:58:04.473Z,65.44
2018-03-11T15:00:32.566Z,64.65
2018-03-11T15:03:00.693Z,64.62
2018-03-11T15:05:28.807Z,64.34
2018-03-11T15:07:56.914Z,63.77
2018-03-11T15:10:25.041Z,64.32
2018-03-11T15:12:53.173Z,64.27
2018-03-11T15:15:21.267Z,64.35
2018-03-11T15:17:49.388Z,63.92
2018-03-11T15:20:17.479Z,63.84
2018-03-11T15:22:45.601Z,64.15
2018-03-11T15:25:13.690Z,64.18
2018-03-11T15:27:41.789Z,64.30
2018-03-11T15:30:09.918Z,64.19
2018-03-11T15:32:38.013Z,64.77
2018-03-11T15:35:06.150Z,64.69
2018-03-11T15:37:34.256Z,64.89
2018-03-11T15:40:02.360Z,64.86
2018-03-11T15:42:30.489Z,65.62
2018-03-11T15:44:58.601Z,65.39
2018-03-11T15:47:26.702Z,65.65
2018-03-11T15:49:54.814Z,65.50
2018-03-11T15:52:23.001Z,65.06
2018-03-11T15:54:51.221Z,64.94
2018-03-11T15:57:19.678Z,64.84
2018-03-11T15:59:47.779Z,64.57
2018-03-11T16:02:15.954Z,64.71
2018-03-11T16:04:44.162Z,65.07
2018-03-11T16:07:12.336Z,66.07
2018-03-11T16:09:40.502Z,65.81
2018-03-11T16:12:08.613Z,65.72
2018-03-11T16:14:36.801Z,65.66
2018-03-11T16:17:04.916Z,65.68
2018-03-11T16:19:33.042Z,65.80
2018-03-11T16:22:01.150Z,66.47
2018-03-11T16:24:39.617Z,66.28
2018-03-11T16:27:00.934Z,66.59
2018-03-11T16:29:29.044Z,66.93
2018-03-11T16:31:57.169Z,66.92
2018-03-11T16:34:25.277Z,66.95
2018-03-11T16:36:53.396Z,67.58
2018-03-11T16:39:21.527Z,67.21
2018-03-11T16:41:49.646Z,67.68
2018-03-11T16:44:17.878Z,68.10
2018-03-11T16:46:45.999Z,70.08
2018-03-11T16:49:14.119Z,68.54
2018-03-11T16:51:42.212Z,68.62
2018-03-11T16:54:10.311Z,68.86
2018-03-11T16:56:38.420Z,69.15
2018-03-11T16:59:06.527Z,69.70
2018-03-11T17:01:34.646Z,69.79
2018-03-11T17:04:02.767Z,70.27
2018-03-11T17:06:30.899Z,70.36
2018-03-11T17:08:58.992Z,70.74
2018-03-11T17:11:27.091Z,70.90
2018-03-11T17:13:55.202Z,70.97
2018-03-11T17:16:23.299Z,71.44
2018-03-11T17:18:51.412Z,71.53
2018-03-11T17:21:19.515Z,71.77
2018-03-11T17:23:47.620Z,72.36
2018-03-11T17:26:15.716Z,72.86
2018-03-11T17:28:43.829Z,73.35
2018-03-11T17:31:11.958Z,73.82
2018-03-11T17:33:40.281Z,74.08
2018-03-11T17:36:08.375Z,74.13
2018-03-11T17:38:36.483Z,74.93
2018-03-11T17:41:04.603Z,75.60
2018-03-11T17:43:32.716Z,75.50
2018-03-11T17:46:00.821Z,75.74
2018-03-11T17:48:28.925Z,75.59
2018-03-11T17:50:57.033Z,76.09
2018-03-11T17:53:25.138Z,76.26
2018-03-11T17:55:53.270Z,76.63
2018-03-11T17:58:21.378Z,76.73
2018-03-11T18:00:49.475Z,77.39
2018-03-11T18:03:17.581Z,77.98
2018-03-11T18:05:45.692Z,78.12
2018-03-11T18:08:13.786Z,78.41
2018-03-11T18:10:41.886Z,78.68
2018-03-11T18:13:09.975Z,78.89
2018-03-11T18:15:38.092Z,78.92
2018-03-11T18:18:06.253Z,79.34
2018-03-11T18:20:34.366Z,79.43
2018-03-11T18:23:02.485Z,79.40
2018-03-11T18:25:30.576Z,79.34
2018-03-11T18:27:58.684Z,79.75
2018-03-11T18:30:26.792Z,79.87
2018-03-11T18:32:54.898Z,80.20
2018-03-11T18:35:23.027Z,80.30
2018-03-11T18:37:51.129Z,80.31
2018-03-11T18:40:19.230Z,80.42
2018-03-11T18:42:47.339Z,80.36
2018-03-11T18:45:15.469Z,80.62
2018-03-11T18:47:43.593Z,80.61
2018-03-11T18:50:11.680Z,80.55
2018-03-11T18:52:39.772Z,80.85
2018-03-11T18:55:07.901Z,80.85
2018-03-11T18:57:36.007Z,80.85
2018-03-11T19:00:07.089Z,80.98
2018-03-11T19:02:35.207Z,81.17
2018-03-11T19:05:03.298Z,81.49
2018-03-11T19:07:31.422Z,81.26
2018-03-11T19:09:59.516Z,81.25
2018-03-11T19:12:27.634Z,81.17
2018-03-11T19:14:55.754Z,81.28
2018-03-11T19:17:23.860Z,81.20
2018-03-11T19:19:51.955Z,81.30
2018-03-11T19:22:20.064Z,81.22
2018-03-11T19:24:48.183Z,81.14
2018-03-11T19:27:16.275Z,81.18
2018-03-11T19:29:44.395Z,81.19
2018-03-11T19:32:12.511Z,81.38
2018-03-11T19:34:40.611Z,81.36
2018-03-11T19:37:08.700Z,81.41
2018-03-11T19:39:36.818Z,81.58
2018-03-11T19:42:04.929Z,81.56
2018-03-11T19:44:33.034Z,81.80
2018-03-11T19:47:05.175Z,81.72
2018-03-11T19:49:33.291Z,82.02
2018-03-11T19:52:01.394Z,81.64
2018-03-11T19:54:29.491Z,82.04
2018-03-11T19:56:57.597Z,82.00
2018-03-11T19:59:25.702Z,82.08
2018-03-11T20:01:53.827Z,82.48
2018-03-11T20:04:21.907Z,82.29
2018-03-11T20:06:50.018Z,82.56
2018-03-11T20:09:18.118Z,82.73
2018-03-11T20:11:46.246Z,82.91
2018-03-11T20:14:14.366Z,82.76
2018-03-11T20:16:42.627Z,83.01
2018-03-11T20:19:10.731Z,83.19
2018-03-11T20:21:38.853Z,83.37
2018-03-11T20:24:06.943Z,83.41
2018-03-11T20:26:35.126Z,83.52
2018-03-11T20:29:03.303Z,83.69
2018-03-11T20:31:31.410Z,83.81
2018-03-11T20:33:59.620Z,83.84
2018-03-11T20:36:27.696Z,83.71
2018-03-11T20:38:55.810Z,83.71
2018-03-11T20:41:23.923Z,83.61
2018-03-11T20:43:52.022Z,83.49
2018-03-11T20:46:20.183Z,83.44
2018-03-11T20:48:48.332Z,83.28
2018-03-11T20:51:19.987Z,83.40
2018-03-11T20:53:48.116Z,83.54
2018-03-11T20:56:16.241Z,83.55
2018-03-11T20:58:44.348Z,83.52
2018-03-11T21:01:12.462Z,83.54
2018-03-11T21:03:40.563Z,83.42
2018-03-11T21:06:08.671Z,83.40
2018-03-11T21:08:36.773Z,83.62
2018-03-11T21:11:04.875Z,83.60
2018-03-11T21:13:33.010Z,83.46
2018-03-11T21:16:01.090Z,83.55
2018-03-11T21:18:29.221Z,83.77
2018-03-11T21:20:57.331Z,83.69
2018-03-11T21:23:25.445Z,84.25
2018-03-11T21:25:53.632Z,83.87
2018-03-11T21:28:21.766Z,84.18
2018-03-11T21:30:49.899Z,84.09
2018-03-11T21:33:17.999Z,83.90
2018-03-11T21:35:46.991Z,84.27
2018-03-11T21:38:18.792Z,84.37
2018-03-11T21:40:46.879Z,84.69
2018-03-11T21:43:14.976Z,84.90
2018-03-11T21:45:43.100Z,85.01
2018-03-11T21:48:11.234Z,85.10
2018-03-11T21:50:39.323Z,85.06
2018-03-11T21:53:07.443Z,85.22
2018-03-11T21:55:35.570Z,85.69
2018-03-11T21:58:03.661Z,85.52
2018-03-11T22:00:31.786Z,85.74
2018-03-11T22:02:59.917Z,85.85
2018-03-11T22:05:28.021Z,86.06
2018-03-11T22:07:56.162Z,85.79
2018-03-11T22:10:24.264Z,86.02
2018-03-11T22:12:52.351Z,86.21
2018-03-11T22:15:20.476Z,86.38
2018-03-11T22:17:48.582Z,86.16
2018-03-11T22:20:16.981Z,86.46
2018-03-11T22:22:45.101Z,87.08
2018-03-11T22:25:13.221Z,86.84
2018-03-11T22:27:41.316Z,87.17
2018-03-11T22:30:09.476Z,87.12
2018-03-11T22:32:37.583Z,87.19
2018-03-11T22:35:05.681Z,87.31
2018-03-11T22:37:33.779Z,87.25
2018-03-11T22:40:01.909Z,87.45
2018-03-11T22:42:30.014Z,87.30
2018-03-11T22:44:58.113Z,87.45
2018-03-11T22:47:26.219Z,87.15
2018-03-11T22:49:54.337Z,87.15
2018-03-11T22:52:22.446Z,87.01
2018-03-11T22:54:50.569Z,87.42
2018-03-11T22:57:18.663Z,87.96
2018-03-11T22:59:46.772Z,88.12
2018-03-11T23:02:14.879Z,87.68
2018-03-11T23:04:42.976Z,88.25
2018-03-11T23:07:11.086Z,88.75
2018-03-11T23:09:39.183Z,88.61
2018-03-11T23:12:07.291Z,89.11
2018-03-11T23:14:35.395Z,89.21
2018-03-11T23:17:03.509Z,89.27
2018-03-11T23:19:31.624Z,89.20
2018-03-11T23:21:59.711Z,89.04
2018-03-11T23:24:27.832Z,89.18
2018-03-11T23:26:55.928Z,89.48
2018-03-11T23:29:24.028Z,88.91
2018-03-11T23:31:52.143Z,88.77
2018-03-11T23:34:20.245Z,89.40
2018-03-11T23:36:48.357Z,88.71
2018-03-11T23:39:16.577Z,88.96
2018-03-11T23:41:44.716Z,88.91
2018-03-11T23:44:12.808Z,88.84
2018-03-11T23:46:40.933Z,88.67
2018-03-11T23:49:12.681Z,88.96
2018-03-11T23:51:40.791Z,88.58
2018-03-11T23:54:08.905Z,89.25
2018-03-11T23:56:37.003Z,88.84
2018-03-11T23:59:05.131Z,89.52
